createdAt,value
2023-02-12T00:01:29.196Z,5.75
2023-02-12T00:03:58.281Z,5.72
2023-02-12T00:06:26.715Z,5.66
2023-02-12T00:08:56.485Z,5.64
2023-02-12T00:11:28.933Z,5.66
2023-02-12T00:13:58.074Z,5.67
2023-02-12T00:16:28.817Z,5.69
2023-02-12T00:18:58.733Z,5.69
2023-02-12T00:21:27.658Z,5.66
2023-02-12T00:23:55.910Z,5.67
2023-02-12T00:26:24.820Z,5.67
2023-02-12T00:28:52.939Z,5.76
2023-02-12T00:31:24.457Z,5.85
2023-02-12T00:33:53.062Z,5.94
2023-02-12T00:36:24.931Z,5.98
2023-02-12T00:38:54.917Z,5.99
2023-02-12T00:41:26.594Z,5.99
2023-02-12T00:43:54.872Z,6.00
2023-02-12T00:46:23.079Z,6.00
2023-02-12T00:48:52.061Z,6.03
2023-02-12T00:51:21.813Z,6.07
2023-02-12T00:53:49.758Z,6.09
2023-02-12T00:56:17.791Z,6.11
2023-02-12T00:58:45.874Z,6.12
2023-02-12T01:01:14.036Z,6.15
2023-02-12T01:03:42.466Z,6.19
2023-02-12T01:06:10.483Z,6.16
2023-02-12T01:08:38.394Z,6.14
2023-02-12T01:11:06.680Z,6.14
2023-02-12T01:13:35.205Z,6.16
2023-02-12T01:16:11.114Z,6.16
2023-02-12T01:18:39.433Z,6.16
2023-02-12T01:21:16.596Z,6.15
2023-02-12T01:23:46.171Z,6.16
2023-02-12T01:26:15.673Z,6.16
2023-02-12T01:28:45.785Z,6.15
2023-02-12T01:31:17.302Z,6.13
2023-02-12T01:33:48.854Z,6.13
2023-02-12T01:36:17.160Z,6.17
2023-02-12T01:38:45.238Z,6.18
2023-02-12T01:41:20.192Z,6.14
2023-02-12T01:44:12.702Z,6.12
2023-02-12T01:46:40.689Z,6.11
2023-02-12T01:49:16.707Z,6.09
2023-02-12T01:51:45.555Z,6.08
2023-02-12T01:54:17.681Z,6.10
2023-02-12T01:56:46.014Z,6.11
2023-02-12T01:59:14.121Z,6.09
2023-02-12T02:01:42.509Z,6.06
2023-02-12T02:04:15.477Z,6.08
2023-02-12T02:06:50.717Z,6.11
2023-02-12T02:09:20.093Z,6.13
2023-02-12T02:12:06.785Z,6.14
2023-02-12T02:14:36.096Z,6.14
2023-02-12T02:17:13.521Z,6.11
2023-02-12T02:20:03.861Z,6.10
2023-02-12T02:22:41.006Z,6.16
2023-02-12T02:25:34.999Z,6.15
2023-02-12T02:28:18.528Z,6.20
2023-02-12T02:31:00.637Z,6.25
2023-02-12T02:33:50.758Z,6.28
2023-02-12T02:36:26.193Z,6.27
2023-02-12T02:39:07.362Z,6.27
2023-02-12T02:41:41.334Z,6.28
2023-02-12T02:44:17.775Z,6.28
2023-02-12T02:46:51.966Z,6.30
2023-02-12T02:49:35.677Z,6.28
2023-02-12T02:52:19.320Z,6.26
2023-02-12T02:54:54.638Z,6.23
2023-02-12T02:57:29.446Z,6.21
2023-02-12T03:00:10.212Z,6.19
2023-02-12T03:02:42.473Z,6.14
2023-02-12T03:05:20.170Z,6.14
2023-02-12T03:08:12.383Z,6.11
2023-02-12T03:10:45.922Z,6.15
2023-02-12T03:13:24.749Z,6.16
2023-02-12T03:16:04.890Z,6.10
2023-02-12T03:18:50.186Z,6.04
2023-02-12T03:21:27.608Z,6.01
2023-02-12T03:24:22.342Z,6.00
2023-02-12T03:27:13.970Z,5.94
2023-02-12T03:29:41.918Z,5.89
2023-02-12T03:32:30.827Z,5.87
2023-02-12T03:35:04.990Z,5.83
2023-02-12T03:37:55.076Z,5.75
2023-02-12T03:40:31.131Z,5.75
2023-02-12T03:43:19.599Z,5.80
2023-02-12T03:45:56.156Z,5.84
2023-02-12T03:48:41.503Z,5.85
2023-02-12T03:51:25.207Z,5.84
2023-02-12T03:53:53.313Z,5.89
2023-02-12T03:56:28.706Z,5.92
2023-02-12T03:58:57.604Z,5.94
2023-02-12T04:01:27.495Z,5.93
2023-02-12T04:03:56.278Z,5.92
2023-02-12T04:06:27.044Z,5.91
2023-02-12T04:08:58.323Z,5.88
2023-02-12T04:12:04.901Z,5.91
2023-02-12T04:14:56.515Z,5.94
2023-02-12T04:17:50.289Z,5.96
2023-02-12T04:20:27.648Z,5.95
2023-02-12T04:22:55.620Z,5.95
2023-02-12T04:26:01.988Z,6.00
2023-02-12T04:29:09.418Z,5.99
2023-02-12T04:32:03.881Z,5.94
2023-02-12T04:34:40.545Z,5.89
2023-02-12T04:37:30.326Z,5.94
2023-02-12T04:40:00.362Z,5.96
2023-02-12T04:42:28.399Z,5.97
2023-02-12T04:44:56.209Z,5.97
2023-02-12T04:47:24.023Z,5.97
2023-02-12T04:49:52.075Z,5.95
2023-02-12T04:52:19.891Z,6.00
2023-02-12T04:54:47.856Z,6.01
2023-02-12T04:57:15.783Z,6.07
2023-02-12T04:59:43.647Z,6.05
2023-02-12T05:02:11.555Z,6.04
2023-02-12T05:04:39.541Z,6.04
2023-02-12T05:07:07.423Z,5.96
2023-02-12T05:09:35.245Z,5.92
2023-02-12T05:12:03.410Z,5.93
2023-02-12T05:14:31.350Z,5.91
2023-02-12T05:16:59.510Z,5.85
2023-02-12T05:19:27.286Z,5.83
2023-02-12T05:21:55.313Z,5.84
2023-02-12T05:24:23.346Z,5.85
2023-02-12T05:26:51.741Z,5.81
2023-02-12T05:29:20.053Z,5.72
2023-02-12T05:31:48.218Z,5.59
2023-02-12T05:34:16.275Z,5.52
2023-02-12T05:36:44.285Z,5.50
2023-02-12T05:39:12.219Z,5.46
2023-02-12T05:41:40.227Z,5.47
2023-02-12T05:44:08.113Z,5.52
2023-02-12T05:46:36.216Z,5.58
2023-02-12T05:49:04.486Z,5.61
2023-02-12T05:51:32.645Z,5.62
2023-02-12T05:54:03.757Z,5.63
2023-02-12T05:56:34.384Z,5.66
2023-02-12T05:59:23.446Z,5.66
2023-02-12T06:01:52.226Z,5.56
2023-02-12T06:04:23.856Z,5.46
2023-02-12T06:06:53.491Z,5.38
2023-02-12T06:09:21.954Z,5.29
2023-02-12T06:11:49.764Z,5.21
2023-02-12T06:14:19.832Z,5.29
2023-02-12T06:16:50.276Z,5.38
2023-02-12T06:19:19.364Z,5.40
2023-02-12T06:21:47.857Z,5.42
2023-02-12T06:24:17.222Z,5.43
2023-02-12T06:26:46.048Z,5.43
2023-02-12T06:29:13.935Z,5.38
2023-02-12T06:31:42.817Z,5.35
2023-02-12T06:34:13.073Z,5.38
2023-02-12T06:36:44.730Z,5.41
2023-02-12T06:39:15.661Z,5.41
2023-02-12T06:41:44.752Z,5.44
2023-02-12T06:44:13.243Z,5.46
2023-02-12T06:46:41.505Z,5.43
2023-02-12T06:49:12.557Z,5.47
2023-02-12T06:51:41.532Z,5.54
2023-02-12T06:54:14.552Z,5.62
2023-02-12T06:56:42.565Z,5.56
2023-02-12T06:59:15.335Z,5.40
2023-02-12T07:01:44.136Z,5.22
2023-02-12T07:04:12.247Z,5.06
2023-02-12T07:06:40.736Z,4.87
2023-02-12T07:09:08.831Z,4.78
2023-02-12T07:11:38.479Z,4.72
2023-02-12T07:14:08.117Z,4.66
2023-02-12T07:16:40.648Z,4.63
2023-02-12T07:19:09.668Z,4.66
2023-02-12T07:21:37.482Z,4.69
2023-02-12T07:24:05.678Z,4.75
2023-02-12T07:26:33.634Z,4.75
2023-02-12T07:29:01.646Z,4.74
2023-02-12T07:31:29.612Z,4.76
2023-02-12T07:33:59.769Z,4.80
2023-02-12T07:36:30.696Z,4.80
2023-02-12T07:39:00.137Z,4.81
2023-02-12T07:41:30.852Z,4.82
2023-02-12T07:44:03.625Z,4.82
2023-02-12T07:46:34.234Z,4.80
2023-02-12T07:49:05.848Z,4.79
2023-02-12T07:51:35.582Z,4.80
2023-02-12T07:54:04.323Z,4.83
2023-02-12T07:56:35.503Z,4.84
2023-02-12T07:59:12.873Z,4.86
2023-02-12T08:01:45.637Z,4.88
2023-02-12T08:04:16.396Z,4.87
2023-02-12T08:06:49.869Z,4.87
2023-02-12T08:09:24.139Z,4.91
2023-02-12T08:11:52.182Z,4.99
2023-02-12T08:14:22.009Z,5.04
2023-02-12T08:16:50.882Z,5.08
2023-02-12T08:19:24.049Z,5.13
2023-02-12T08:21:55.243Z,5.19
2023-02-12T08:24:24.728Z,5.22
2023-02-12T08:26:52.898Z,5.33
2023-02-12T08:29:24.478Z,5.41
2023-02-12T08:31:58.155Z,5.45
2023-02-12T08:34:32.142Z,5.53
2023-02-12T08:37:00.549Z,5.61
2023-02-12T08:39:29.794Z,5.65
2023-02-12T08:41:59.392Z,5.71
2023-02-12T08:44:27.920Z,5.76
2023-02-12T08:46:55.888Z,5.75
2023-02-12T08:49:26.938Z,5.76
2023-02-12T08:51:57.081Z,5.79
2023-02-12T08:54:27.429Z,5.84
2023-02-12T08:57:00.413Z,5.85
2023-02-12T08:59:28.775Z,5.89
2023-02-12T09:01:56.970Z,5.91
2023-02-12T09:04:27.080Z,5.96
2023-02-12T09:06:56.198Z,6.01
2023-02-12T09:09:24.704Z,6.06
2023-02-12T09:11:52.845Z,5.95
2023-02-12T09:14:24.951Z,5.87
2023-02-12T09:16:54.210Z,5.87
2023-02-12T09:19:22.522Z,5.81
2023-02-12T09:21:55.168Z,5.78
2023-02-12T09:24:25.735Z,5.77
2023-02-12T09:26:53.761Z,5.74
2023-02-12T09:29:21.734Z,5.80
2023-02-12T09:31:49.746Z,5.95
2023-02-12T09:34:18.106Z,6.11
2023-02-12T09:36:46.060Z,6.20
2023-02-12T09:39:14.005Z,6.20
2023-02-12T09:42:15.372Z,6.15
2023-02-12T09:44:52.486Z,6.20
2023-02-12T09:47:32.353Z,6.33
2023-02-12T09:50:06.147Z,6.36
2023-02-12T09:52:35.541Z,6.42
2023-02-12T09:55:04.089Z,6.43
2023-02-12T09:57:36.183Z,6.43
2023-02-12T10:00:24.483Z,6.42
2023-02-12T10:02:54.454Z,6.45
2023-02-12T10:05:29.338Z,6.45
2023-02-12T10:08:39.313Z,6.48
2023-02-12T10:11:16.137Z,6.58
2023-02-12T10:14:38.842Z,6.59
2023-02-12T10:17:34.313Z,6.65
2023-02-12T10:20:20.436Z,6.73
2023-02-12T10:23:16.129Z,6.73
2023-02-12T10:25:54.576Z,6.75
2023-02-12T10:28:35.257Z,6.69
2023-02-12T10:31:08.191Z,6.66
2023-02-12T10:33:42.146Z,6.67
2023-02-12T10:36:26.261Z,6.70
2023-02-12T10:39:01.349Z,6.67
2023-02-12T10:41:31.510Z,6.65
2023-02-12T10:43:59.513Z,6.69
2023-02-12T10:46:32.111Z,6.75
2023-02-12T10:49:00.769Z,6.77
2023-02-12T10:51:50.099Z,6.75
2023-02-12T10:54:41.743Z,6.73
2023-02-12T10:57:22.081Z,6.78
2023-02-12T10:59:53.410Z,6.77
2023-02-12T11:02:23.014Z,6.74
2023-02-12T11:04:52.799Z,6.75
2023-02-12T11:07:22.032Z,6.71
2023-02-12T11:09:52.031Z,6.70
2023-02-12T11:12:22.904Z,6.69
2023-02-12T11:14:54.302Z,6.57
2023-02-12T11:17:39.861Z,6.33
2023-02-12T11:20:16.614Z,6.20
2023-02-12T11:22:50.320Z,6.06
2023-02-12T11:25:18.831Z,6.00
2023-02-12T11:28:00.305Z,5.95
2023-02-12T11:30:28.540Z,6.00
2023-02-12T11:33:16.453Z,6.09
2023-02-12T11:35:58.085Z,6.17
2023-02-12T11:38:36.783Z,6.18
2023-02-12T11:41:38.213Z,6.21
2023-02-12T11:44:22.449Z,6.33
2023-02-12T11:47:02.167Z,6.47
2023-02-12T11:49:34.806Z,6.59
2023-02-12T11:52:04.856Z,6.61
2023-02-12T11:54:42.069Z,6.59
2023-02-12T11:57:35.854Z,6.63
2023-02-12T12:00:16.597Z,6.75
2023-02-12T12:03:06.884Z,6.76
2023-02-12T12:06:01.259Z,6.72
2023-02-12T12:08:44.325Z,6.73
2023-02-12T12:11:20.810Z,6.81
2023-02-12T12:14:15.228Z,6.87
2023-02-12T12:17:13.335Z,6.81
2023-02-12T12:20:06.840Z,6.80
2023-02-12T12:22:51.451Z,6.80
2023-02-12T12:25:30.078Z,6.84
2023-02-12T12:28:10.809Z,6.93
2023-02-12T12:31:02.973Z,6.97
2023-02-12T12:33:46.807Z,7.01
2023-02-12T12:36:14.818Z,7.07
2023-02-12T12:38:49.286Z,6.98
2023-02-12T12:41:41.414Z,6.93
2023-02-12T12:44:31.021Z,7.00
2023-02-12T12:47:17.944Z,6.97
2023-02-12T12:49:59.149Z,7.00
2023-02-12T12:52:33.297Z,7.03
2023-02-12T12:55:07.502Z,7.13
2023-02-12T12:57:39.934Z,7.20
2023-02-12T13:00:29.134Z,7.16
2023-02-12T13:03:29.297Z,7.10
2023-02-12T13:06:21.729Z,7.13
2023-02-12T13:09:08.857Z,7.16
2023-02-12T13:11:55.062Z,7.21
2023-02-12T13:14:44.839Z,7.24
2023-02-12T13:17:30.734Z,7.22
2023-02-12T13:19:58.833Z,7.22
2023-02-12T13:22:35.045Z,7.20
2023-02-12T13:25:21.225Z,7.22
2023-02-12T13:27:52.137Z,7.23
2023-02-12T13:30:25.242Z,7.23
2023-02-12T13:33:24.183Z,7.23
2023-02-12T13:35:57.323Z,7.28
2023-02-12T13:38:39.492Z,7.30
2023-02-12T13:41:11.238Z,7.32
2023-02-12T13:43:39.159Z,7.36
2023-02-12T13:46:13.169Z,7.35
2023-02-12T13:48:40.975Z,7.33
2023-02-12T13:51:41.392Z,7.35
2023-02-12T13:54:33.489Z,7.35
2023-02-12T13:57:07.882Z,7.40
2023-02-12T13:59:35.837Z,7.40
2023-02-12T14:02:06.726Z,7.39
2023-02-12T14:04:52.932Z,7.41
2023-02-12T14:07:22.256Z,7.39
2023-02-12T14:09:50.121Z,7.35
2023-02-12T14:12:28.657Z,7.31
2023-02-12T14:15:07.136Z,7.32
2023-02-12T14:17:35.043Z,7.28
2023-02-12T14:20:13.612Z,7.25
2023-02-12T14:22:44.274Z,7.25
2023-02-12T14:25:15.056Z,7.19
2023-02-12T14:27:50.371Z,7.16
2023-02-12T14:30:35.456Z,7.19
2023-02-12T14:33:26.460Z,7.17
2023-02-12T14:36:17.512Z,7.04
2023-02-12T14:38:47.769Z,6.93
2023-02-12T14:41:41.925Z,6.94
2023-02-12T14:44:23.399Z,6.97
2023-02-12T14:46:58.923Z,6.96
2023-02-12T14:49:49.086Z,6.82
2023-02-12T14:52:22.668Z,6.86
2023-02-12T14:55:04.240Z,6.81
2023-02-12T14:57:39.524Z,6.73
2023-02-12T15:00:16.733Z,6.74
2023-02-12T15:02:53.856Z,6.69
2023-02-12T15:05:29.182Z,6.68
2023-02-12T15:08:12.054Z,6.72
2023-02-12T15:10:47.477Z,6.64
2023-02-12T15:13:30.889Z,6.57
2023-02-12T15:16:27.609Z,6.56
2023-02-12T15:19:18.735Z,6.56
2023-02-12T15:21:47.968Z,6.56
2023-02-12T15:24:23.574Z,6.55
2023-02-12T15:26:54.582Z,6.52
2023-02-12T15:29:27.766Z,6.48
2023-02-12T15:32:02.482Z,6.46
2023-02-12T15:34:33.318Z,6.38
2023-02-12T15:37:03.744Z,6.36
2023-02-12T15:39:43.433Z,6.31
2023-02-12T15:42:52.930Z,6.32
2023-02-12T15:45:23.878Z,6.29
2023-02-12T15:48:19.306Z,6.26
2023-02-12T15:51:07.898Z,6.28
2023-02-12T15:53:38.574Z,6.27
2023-02-12T15:56:19.710Z,6.28
2023-02-12T15:58:50.235Z,6.24
2023-02-12T16:01:52.402Z,6.19
2023-02-12T16:04:20.450Z,6.18
2023-02-12T16:06:49.527Z,6.17
2023-02-12T16:09:27.727Z,6.19
2023-02-12T16:11:58.308Z,6.23
2023-02-12T16:14:28.733Z,6.29
2023-02-12T16:16:59.251Z,6.32
2023-02-12T16:19:37.265Z,6.41
2023-02-12T16:22:05.632Z,6.42
2023-02-12T16:24:38.115Z,6.40
2023-02-12T16:27:20.040Z,6.40
2023-02-12T16:29:51.853Z,6.38
2023-02-12T16:32:31.219Z,6.41
2023-02-12T16:35:24.859Z,6.40
2023-02-12T16:38:17.337Z,6.34
2023-02-12T16:41:11.023Z,6.33
2023-02-12T16:43:38.972Z,6.31
2023-02-12T16:46:08.722Z,6.33
2023-02-12T16:48:49.070Z,6.38
2023-02-12T16:51:37.614Z,6.40
2023-02-12T16:54:26.588Z,6.46
2023-02-12T16:56:54.629Z,6.47
2023-02-12T16:59:22.808Z,6.46
2023-02-12T17:02:09.773Z,6.47
2023-02-12T17:04:37.658Z,6.42
2023-02-12T17:07:28.252Z,6.37
2023-02-12T17:09:56.318Z,6.34
2023-02-12T17:12:24.650Z,6.35
2023-02-12T17:14:52.712Z,6.36
2023-02-12T17:17:20.614Z,6.35
2023-02-12T17:19:48.621Z,6.37
2023-02-12T17:22:26.506Z,6.33
2023-02-12T17:24:54.899Z,6.34
2023-02-12T17:27:22.854Z,6.27
2023-02-12T17:29:50.890Z,6.27
2023-02-12T17:32:18.994Z,6.31
2023-02-12T17:34:48.839Z,6.29
2023-02-12T17:37:18.427Z,6.23
2023-02-12T17:39:46.586Z,6.20
2023-02-12T17:42:14.835Z,6.16
2023-02-12T17:44:42.768Z,6.17
2023-02-12T17:47:10.853Z,6.14
2023-02-12T17:49:39.962Z,6.11
2023-02-12T17:52:08.043Z,6.11
2023-02-12T17:54:36.737Z,6.09
2023-02-12T17:57:04.836Z,6.07
2023-02-12T17:59:32.893Z,6.07
2023-02-12T18:02:00.854Z,6.05
2023-02-12T18:04:28.901Z,6.01
2023-02-12T18:06:57.738Z,5.98
2023-02-12T18:09:25.575Z,6.00
2023-02-12T18:11:53.800Z,6.02
2023-02-12T18:14:21.833Z,6.08
2023-02-12T18:16:50.070Z,6.08
2023-02-12T18:19:18.022Z,6.06
2023-02-12T18:21:45.984Z,6.06
2023-02-12T18:24:14.026Z,6.07
2023-02-12T18:26:42.055Z,6.07
2023-02-12T18:29:10.246Z,6.02
2023-02-12T18:31:38.174Z,5.99
2023-02-12T18:34:07.121Z,5.98
2023-02-12T18:36:35.045Z,5.96
2023-02-12T18:39:03.745Z,5.98
2023-02-12T18:41:35.917Z,6.00
2023-02-12T18:44:05.350Z,6.01
2023-02-12T18:46:33.246Z,5.99
2023-02-12T18:49:01.765Z,5.89
2023-02-12T18:51:33.832Z,5.90
2023-02-12T18:54:06.432Z,5.84
2023-02-12T18:56:41.075Z,5.80
2023-02-12T18:59:12.257Z,5.78
2023-02-12T19:01:40.287Z,5.77
2023-02-12T19:04:11.512Z,5.82
2023-02-12T19:06:51.115Z,5.81
2023-02-12T19:09:23.410Z,5.79
2023-02-12T19:11:54.290Z,5.81
2023-02-12T19:14:24.054Z,5.80
2023-02-12T19:16:52.982Z,5.77
2023-02-12T19:19:22.031Z,5.76
2023-02-12T19:21:50.915Z,5.77
2023-02-12T19:24:19.064Z,5.74
2023-02-12T19:26:51.723Z,5.70
2023-02-12T19:29:19.931Z,5.68
2023-02-12T19:31:48.063Z,5.68
2023-02-12T19:34:19.733Z,5.72
2023-02-12T19:36:49.044Z,5.75
2023-02-12T19:39:20.597Z,5.80
2023-02-12T19:41:49.230Z,5.79
2023-02-12T19:44:21.765Z,5.74
2023-02-12T19:46:50.689Z,5.75
2023-02-12T19:49:27.638Z,5.69
2023-02-12T19:51:55.704Z,5.72
2023-02-12T19:54:24.473Z,5.68
2023-02-12T19:56:54.111Z,5.62
2023-02-12T19:59:23.817Z,5.59
2023-02-12T20:01:51.905Z,5.56
2023-02-12T20:04:23.028Z,5.56
2023-02-12T20:06:51.315Z,5.56
2023-02-12T20:09:21.533Z,5.52
2023-02-12T20:11:49.637Z,5.50
2023-02-12T20:14:17.962Z,5.51
2023-02-12T20:16:47.588Z,5.51
2023-02-12T20:19:19.799Z,5.53
2023-02-12T20:21:53.398Z,5.56
2023-02-12T20:24:27.998Z,5.51
2023-02-12T20:26:58.424Z,5.49
2023-02-12T20:29:27.002Z,5.48
2023-02-12T20:31:55.057Z,5.44
2023-02-12T20:34:23.362Z,5.45
2023-02-12T20:36:51.489Z,5.47
2023-02-12T20:39:20.905Z,5.49
2023-02-12T20:41:50.194Z,5.50
2023-02-12T20:44:21.086Z,5.50
2023-02-12T20:46:54.537Z,5.46
2023-02-12T20:49:25.698Z,5.46
2023-02-12T20:51:54.000Z,5.50
2023-02-12T20:54:22.189Z,5.47
2023-02-12T20:56:50.912Z,5.43
2023-02-12T20:59:18.977Z,5.47
2023-02-12T21:01:47.609Z,5.47
2023-02-12T21:04:18.671Z,5.43
2023-02-12T21:06:48.552Z,5.44
2023-02-12T21:09:17.623Z,5.46
2023-02-12T21:11:45.964Z,5.47
2023-02-12T21:14:23.857Z,5.45
2023-02-12T21:16:54.325Z,5.47
2023-02-12T21:19:24.446Z,5.46
2023-02-12T21:21:52.967Z,5.46
2023-02-12T21:24:24.198Z,5.46
2023-02-12T21:26:53.682Z,5.46
2023-02-12T21:29:22.156Z,5.47
2023-02-12T21:31:51.594Z,5.47
2023-02-12T21:34:22.264Z,5.50
2023-02-12T21:36:53.127Z,5.50
2023-02-12T21:39:25.103Z,5.49
2023-02-12T21:41:55.851Z,5.48
2023-02-12T21:44:25.549Z,5.45
2023-02-12T21:46:54.089Z,5.45
2023-02-12T21:49:27.890Z,5.48
2023-02-12T21:51:59.244Z,5.49
2023-02-12T21:54:29.187Z,5.49
2023-02-12T21:56:57.408Z,5.47
2023-02-12T21:59:26.667Z,5.48
2023-02-12T22:01:58.070Z,5.46
2023-02-12T22:04:27.011Z,5.46
2023-02-12T22:06:56.622Z,5.48
2023-02-12T22:09:24.571Z,5.48
2023-02-12T22:11:52.995Z,5.49
2023-02-12T22:14:22.938Z,5.47
2023-02-12T22:16:51.164Z,5.51
2023-02-12T22:19:19.360Z,5.54
2023-02-12T22:21:51.704Z,5.54
2023-02-12T22:24:21.202Z,5.55
2023-02-12T22:26:49.655Z,5.58
2023-02-12T22:29:18.499Z,5.55
2023-02-12T22:31:47.695Z,5.55
2023-02-12T22:34:19.105Z,5.58
2023-02-12T22:36:47.875Z,5.63
2023-02-12T22:39:17.603Z,5.67
2023-02-12T22:41:46.374Z,5.69
2023-02-12T22:44:15.789Z,5.67
2023-02-12T22:46:44.820Z,5.65
2023-02-12T22:49:13.463Z,5.65
2023-02-12T22:51:41.868Z,5.66
2023-02-12T22:54:14.776Z,5.64
2023-02-12T22:56:43.529Z,5.63
2023-02-12T22:59:12.479Z,5.62
2023-02-12T23:01:41.114Z,5.64
2023-02-12T23:04:17.392Z,5.65
2023-02-12T23:06:45.561Z,5.68
2023-02-12T23:09:15.512Z,5.63
2023-02-12T23:11:43.857Z,5.66
2023-02-12T23:14:12.343Z,5.66
2023-02-12T23:16:40.376Z,5.67
2023-02-12T23:19:11.247Z,5.66
2023-02-12T23:21:39.858Z,5.66
2023-02-12T23:24:07.877Z,5.70
2023-02-12T23:26:36.749Z,5.67
2023-02-12T23:29:04.619Z,5.70
2023-02-12T23:31:32.613Z,5.71
2023-02-12T23:34:00.503Z,5.73
2023-02-12T23:36:29.113Z,5.76
2023-02-12T23:38:57.100Z,5.72
2023-02-12T23:41:25.023Z,5.74
2023-02-12T23:43:53.048Z,5.74
2023-02-12T23:46:21.753Z,5.73
2023-02-12T23:48:49.811Z,5.75
2023-02-12T23:51:17.836Z,5.81
2023-02-12T23:53:45.838Z,5.82
2023-02-12T23:56:13.757Z,5.84
2023-02-12T23:58:41.569Z,5.81
